sensor_id;sensor_type;location;lat;lon;timestamp;pressure;altitude;pressure_sealevel;temperature;humidity
12969;BME280;6549;53.128;8.182;2023-12-07T00:00:18;101524.03;;;1.53;100.00
12969;BME280;6549;53.128;8.182;2023-12-07T00:03:19;101516.69;;;1.54;100.00
12969;BME280;6549;53.128;8.182;2023-12-07T00:06:19;101523.22;;;1.53;100.00
12969;BME280;6549;53.128;8.182;2023-12-07T00:09:19;101519.69;;;1.52;100.00
12969;BME280;6549;53.128;8.182;2023-12-07T00:12:20;101515.59;;;1.55;100.00
12969;BME280;6549;53.128;8.182;2023-12-07T00:15:20;101528.94;;;1.51;100.00
12969;BME280;6549;53.128;8.182;2023-12-07T00:18:21;101533.88;;;1.49;100.00
12969;BME280;6549;53.128;8.182;2023-12-07T00:21:21;101529.72;;;1.52;100.00
12969;BME280;6549;53.128;8.182;2023-12-07T00:24:21;101528.34;;;1.54;100.00
12969;BME280;6549;53.128;8.182;2023-12-07T00:27:22;101530.84;;;1.51;100.00
12969;BME280;6549;53.128;8.182;2023-12-07T00:30:22;101525.63;;;1.54;100.00
12969;BME280;6549;53.128;8.182;2023-12-07T00:33:23;101545.41;;;1.55;100.00
12969;BME280;6549;53.128;8.182;2023-12-07T00:36:23;101547.59;;;1.53;100.00
12969;BME280;6549;53.128;8.182;2023-12-07T00:39:23;101538.66;;;1.52;100.00
12969;BME280;6549;53.128;8.182;2023-12-07T00:42:24;101541.47;;;1.47;100.00
12969;BME280;6549;53.128;8.182;2023-12-07T00:45:24;101543.91;;;1.49;100.00
12969;BME280;6549;53.128;8.182;2023-12-07T00:48:24;101546.91;;;1.47;100.00
12969;BME280;6549;53.128;8.182;2023-12-07T00:51:25;101550.59;;;1.51;100.00
12969;BME280;6549;53.128;8.182;2023-12-07T00:54:25;101551.91;;;1.54;100.00
12969;BME280;6549;53.128;8.182;2023-12-07T00:57:25;101554.22;;;1.47;100.00
12969;BME280;6549;53.128;8.182;2023-12-07T01:00:26;101558.81;;;1.46;100.00
12969;BME280;6549;53.128;8.182;2023-12-07T01:03:27;101554.72;;;1.49;100.00
12969;BME280;6549;53.128;8.182;2023-12-07T01:06:27;101563.34;;;1.51;100.00
12969;BME280;6549;53.128;8.182;2023-12-07T01:09:28;101564.34;;;1.55;100.00
12969;BME280;6549;53.128;8.182;2023-12-07T01:12:28;101564.94;;;1.52;100.00
12969;BME280;6549;53.128;8.182;2023-12-07T01:15:29;101563.16;;;1.47;100.00
12969;BME280;6549;53.128;8.182;2023-12-07T01:18:29;101573.56;;;1.54;100.00
12969;BME280;6549;53.128;8.182;2023-12-07T01:21:29;101575.66;;;1.57;100.00
12969;BME280;6549;53.128;8.182;2023-12-07T01:24:30;101583.31;;;1.55;100.00
12969;BME280;6549;53.128;8.182;2023-12-07T01:27:30;101582.19;;;1.56;100.00
12969;BME280;6549;53.128;8.182;2023-12-07T01:30:30;101579.69;;;1.59;100.00
12969;BME280;6549;53.128;8.182;2023-12-07T01:33:31;101586.31;;;1.53;100.00
12969;BME280;6549;53.128;8.182;2023-12-07T01:36:31;101581.28;;;1.60;100.00
12969;BME280;6549;53.128;8.182;2023-12-07T01:39:31;101584.09;;;1.55;100.00
12969;BME280;6549;53.128;8.182;2023-12-07T01:42:31;101591.31;;;1.60;100.00
12969;BME280;6549;53.128;8.182;2023-12-07T01:45:32;101598.44;;;1.56;100.00
12969;BME280;6549;53.128;8.182;2023-12-07T01:48:32;101593.81;;;1.56;100.00
12969;BME280;6549;53.128;8.182;2023-12-07T01:51:33;101593.25;;;1.59;100.00
12969;BME280;6549;53.128;8.182;2023-12-07T01:54:34;101597.22;;;1.62;100.00
12969;BME280;6549;53.128;8.182;2023-12-07T01:57:35;101589.09;;;1.62;100.00
12969;BME280;6549;53.128;8.182;2023-12-07T02:00:35;101591.81;;;1.62;100.00
12969;BME280;6549;53.128;8.182;2023-12-07T02:03:36;101587.00;;;1.59;100.00
12969;BME280;6549;53.128;8.182;2023-12-07T02:06:37;101592.91;;;1.61;100.00
12969;BME280;6549;53.128;8.182;2023-12-07T02:09:37;101585.41;;;1.58;100.00
12969;BME280;6549;53.128;8.182;2023-12-07T02:12:38;101590.03;;;1.57;100.00
12969;BME280;6549;53.128;8.182;2023-12-07T02:15:38;101593.03;;;1.56;100.00
12969;BME280;6549;53.128;8.182;2023-12-07T02:18:44;101587.59;;;1.56;100.00
12969;BME280;6549;53.128;8.182;2023-12-07T02:21:52;101591.91;;;1.57;100.00
12969;BME280;6549;53.128;8.182;2023-12-07T02:25:04;101590.19;;;1.61;100.00
12969;BME280;6549;53.128;8.182;2023-12-07T02:28:06;101597.03;;;1.58;100.00
12969;BME280;6549;53.128;8.182;2023-12-07T02:31:06;101590.63;;;1.54;100.00
12969;BME280;6549;53.128;8.182;2023-12-07T02:34:07;101593.25;;;1.59;100.00
12969;BME280;6549;53.128;8.182;2023-12-07T02:37:08;101594.00;;;1.60;100.00
12969;BME280;6549;53.128;8.182;2023-12-07T02:40:10;101591.00;;;1.61;100.00
12969;BME280;6549;53.128;8.182;2023-12-07T02:43:12;101598.84;;;1.63;100.00
12969;BME280;6549;53.128;8.182;2023-12-07T02:46:13;101598.34;;;1.61;100.00
12969;BME280;6549;53.128;8.182;2023-12-07T02:49:13;101597.03;;;1.58;100.00
12969;BME280;6549;53.128;8.182;2023-12-07T02:52:14;101593.53;;;1.58;100.00
12969;BME280;6549;53.128;8.182;2023-12-07T02:55:14;101592.03;;;1.52;100.00
12969;BME280;6549;53.128;8.182;2023-12-07T02:58:14;101616.50;;;1.60;100.00
12969;BME280;6549;53.128;8.182;2023-12-07T03:01:15;101609.69;;;1.49;100.00
12969;BME280;6549;53.128;8.182;2023-12-07T03:04:15;101607.81;;;1.50;100.00
12969;BME280;6549;53.128;8.182;2023-12-07T03:07:15;101609.88;;;1.53;100.00
12969;BME280;6549;53.128;8.182;2023-12-07T03:10:16;101607.69;;;1.55;100.00
12969;BME280;6549;53.128;8.182;2023-12-07T03:13:16;101621.25;;;1.55;100.00
12969;BME280;6549;53.128;8.182;2023-12-07T03:16:16;101614.22;;;1.54;100.00
12969;BME280;6549;53.128;8.182;2023-12-07T03:19:17;101620.72;;;1.53;100.00
12969;BME280;6549;53.128;8.182;2023-12-07T03:22:17;101617.41;;;1.56;100.00
12969;BME280;6549;53.128;8.182;2023-12-07T03:25:18;101622.81;;;1.56;100.00
12969;BME280;6549;53.128;8.182;2023-12-07T03:28:18;101622.81;;;1.56;100.00
12969;BME280;6549;53.128;8.182;2023-12-07T03:31:18;101624.72;;;1.55;100.00
12969;BME280;6549;53.128;8.182;2023-12-07T03:34:19;101620.91;;;1.56;100.00
12969;BME280;6549;53.128;8.182;2023-12-07T03:37:19;101618.31;;;1.51;100.00
12969;BME280;6549;53.128;8.182;2023-12-07T03:40:19;101625.53;;;1.56;100.00
12969;BME280;6549;53.128;8.182;2023-12-07T03:43:19;101629.16;;;1.51;100.00
12969;BME280;6549;53.128;8.182;2023-12-07T03:46:21;101622.81;;;1.56;100.00
12969;BME280;6549;53.128;8.182;2023-12-07T03:49:21;101619.13;;;1.52;100.00
12969;BME280;6549;53.128;8.182;2023-12-07T03:52:21;101622.53;;;1.44;100.00
12969;BME280;6549;53.128;8.182;2023-12-07T03:55:22;101626.34;;;1.43;100.00
12969;BME280;6549;53.128;8.182;2023-12-07T03:58:22;101630.28;;;1.50;100.00
12969;BME280;6549;53.128;8.182;2023-12-07T04:01:23;101623.44;;;1.53;100.00
12969;BME280;6549;53.128;8.182;2023-12-07T04:04:24;101624.25;;;1.53;100.00
12969;BME280;6549;53.128;8.182;2023-12-07T04:07:25;101630.56;;;1.49;100.00
12969;BME280;6549;53.128;8.182;2023-12-07T04:10:25;101628.47;;;1.46;100.00
12969;BME280;6549;53.128;8.182;2023-12-07T04:13:25;101635.78;;;1.45;100.00
12969;BME280;6549;53.128;8.182;2023-12-07T04:16:26;101637.59;;;1.50;100.00
12969;BME280;6549;53.128;8.182;2023-12-07T04:19:26;101636.28;;;1.47;100.00
12969;BME280;6549;53.128;8.182;2023-12-07T04:22:27;101634.56;;;1.51;100.00
12969;BME280;6549;53.128;8.182;2023-12-07T04:25:27;101639.78;;;1.48;100.00
12969;BME280;6549;53.128;8.182;2023-12-07T04:28:27;101638.88;;;1.52;100.00
12969;BME280;6549;53.128;8.182;2023-12-07T04:31:28;101638.69;;;1.49;100.00
12969;BME280;6549;53.128;8.182;2023-12-07T04:34:28;101635.97;;;1.49;100.00
12969;BME280;6549;53.128;8.182;2023-12-07T04:37:28;101636.78;;;1.49;100.00
12969;BME280;6549;53.128;8.182;2023-12-07T04:40:29;101638.78;;;1.44;100.00
12969;BME280;6549;53.128;8.182;2023-12-07T04:43:29;101635.09;;;1.40;100.00
12969;BME280;6549;53.128;8.182;2023-12-07T04:46:29;101637.38;;;1.46;100.00
12969;BME280;6549;53.128;8.182;2023-12-07T04:49:30;101633.88;;;1.46;100.00
12969;BME280;6549;53.128;8.182;2023-12-07T04:52:30;101635.59;;;1.42;100.00
12969;BME280;6549;53.128;8.182;2023-12-07T04:55:30;101636.38;;;1.42;100.00
12969;BME280;6549;53.128;8.182;2023-12-07T04:58:31;101632.91;;;1.42;100.00
12969;BME280;6549;53.128;8.182;2023-12-07T05:01:31;101644.22;;;1.44;100.00
12969;BME280;6549;53.128;8.182;2023-12-07T05:04:31;101641.69;;;1.33;100.00
12969;BME280;6549;53.128;8.182;2023-12-07T05:07:33;101658.25;;;1.32;100.00
12969;BME280;6549;53.128;8.182;2023-12-07T05:10:33;101653.16;;;1.30;100.00
12969;BME280;6549;53.128;8.182;2023-12-07T05:13:34;101658.66;;;1.25;100.00
12969;BME280;6549;53.128;8.182;2023-12-07T05:16:35;101663.69;;;1.32;100.00
12969;BME280;6549;53.128;8.182;2023-12-07T05:19:36;101666.69;;;1.30;100.00
12969;BME280;6549;53.128;8.182;2023-12-07T05:22:36;101667.19;;;1.32;100.00
12969;BME280;6549;53.128;8.182;2023-12-07T05:25:36;101658.16;;;1.37;100.00
12969;BME280;6549;53.128;8.182;2023-12-07T05:28:37;101656.47;;;1.41;100.00
12969;BME280;6549;53.128;8.182;2023-12-07T05:31:39;101658.56;;;1.44;100.00
12969;BME280;6549;53.128;8.182;2023-12-07T05:34:39;101654.56;;;1.42;100.00
12969;BME280;6549;53.128;8.182;2023-12-07T05:37:39;101661.25;;;1.44;100.00
12969;BME280;6549;53.128;8.182;2023-12-07T05:40:40;101656.03;;;1.48;100.00
12969;BME280;6549;53.128;8.182;2023-12-07T05:43:41;101650.72;;;1.43;100.00
12969;BME280;6549;53.128;8.182;2023-12-07T05:46:42;101651.72;;;1.47;100.00
12969;BME280;6549;53.128;8.182;2023-12-07T05:49:44;101657.56;;;1.40;100.00
12969;BME280;6549;53.128;8.182;2023-12-07T05:52:44;101661.66;;;1.38;100.00
12969;BME280;6549;53.128;8.182;2023-12-07T05:55:45;101661.06;;;1.41;100.00
12969;BME280;6549;53.128;8.182;2023-12-07T05:58:47;101655.34;;;1.42;100.00
12969;BME280;6549;53.128;8.182;2023-12-07T06:01:53;101661.25;;;1.44;100.00
12969;BME280;6549;53.128;8.182;2023-12-07T06:04:54;101661.06;;;1.41;100.00
12969;BME280;6549;53.128;8.182;2023-12-07T06:07:54;101663.88;;;1.35;100.00
12969;BME280;6549;53.128;8.182;2023-12-07T06:10:55;101662.78;;;1.37;100.00
12969;BME280;6549;53.128;8.182;2023-12-07T06:13:56;101659.47;;;1.40;100.00
12969;BME280;6549;53.128;8.182;2023-12-07T06:16:58;101665.38;;;1.42;100.00
12969;BME280;6549;53.128;8.182;2023-12-07T06:20:02;101674.09;;;1.39;100.00
12969;BME280;6549;53.128;8.182;2023-12-07T06:23:04;101666.50;;;1.41;100.00
12969;BME280;6549;53.128;8.182;2023-12-07T06:26:04;101666.50;;;1.41;100.00
12969;BME280;6549;53.128;8.182;2023-12-07T06:29:05;101664.88;;;1.40;100.00
12969;BME280;6549;53.128;8.182;2023-12-07T06:32:07;101660.06;;;1.37;100.00
12969;BME280;6549;53.128;8.182;2023-12-07T06:35:08;101663.25;;;1.39;100.00
12969;BME280;6549;53.128;8.182;2023-12-07T06:38:08;101666.50;;;1.41;100.00
12969;BME280;6549;53.128;8.182;2023-12-07T06:41:08;101659.56;;;1.34;100.00
12969;BME280;6549;53.128;8.182;2023-12-07T06:44:09;101664.97;;;1.34;100.00
12969;BME280;6549;53.128;8.182;2023-12-07T06:47:09;101666.69;;;1.30;100.00
12969;BME280;6549;53.128;8.182;2023-12-07T06:50:10;101665.78;;;1.35;100.00
12969;BME280;6549;53.128;8.182;2023-12-07T06:53:10;101663.47;;;1.28;100.00
12969;BME280;6549;53.128;8.182;2023-12-07T06:56:10;101663.69;;;1.32;100.00
12969;BME280;6549;53.128;8.182;2023-12-07T06:59:11;101663.47;;;1.28;100.00
12969;BME280;6549;53.128;8.182;2023-12-07T07:02:11;101666.59;;;1.35;100.00
12969;BME280;6549;53.128;8.182;2023-12-07T07:05:11;101676.81;;;1.39;100.00
12969;BME280;6549;53.128;8.182;2023-12-07T07:08:12;101677.41;;;1.35;100.00
12969;BME280;6549;53.128;8.182;2023-12-07T07:11:12;101690.75;;;1.32;100.00
12969;BME280;6549;53.128;8.182;2023-12-07T07:14:16;101682.13;;;1.30;100.00
12969;BME280;6549;53.128;8.182;2023-12-07T07:17:16;101678.94;;;1.28;100.00
12969;BME280;6549;53.128;8.182;2023-12-07T07:20:17;101685.53;;;1.35;100.00
12969;BME280;6549;53.128;8.182;2023-12-07T07:23:18;101693.66;;;1.35;100.00
12969;BME280;6549;53.128;8.182;2023-12-07T07:26:18;101683.94;;;1.34;100.00
12969;BME280;6549;53.128;8.182;2023-12-07T07:29:19;101686.44;;;1.31;100.00
12969;BME280;6549;53.128;8.182;2023-12-07T07:32:19;101694.03;;;1.29;100.00
12969;BME280;6549;53.128;8.182;2023-12-07T07:35:20;101702.50;;;1.27;100.00
12969;BME280;6549;53.128;8.182;2023-12-07T07:38:20;101695.38;;;1.31;100.00
12969;BME280;6549;53.128;8.182;2023-12-07T07:41:21;101702.41;;;1.32;100.00
12969;BME280;6549;53.128;8.182;2023-12-07T07:44:21;101704.78;;;1.34;100.00
12969;BME280;6549;53.128;8.182;2023-12-07T07:47:21;101709.31;;;1.39;100.00
12969;BME280;6549;53.128;8.182;2023-12-07T07:50:22;101712.53;;;1.41;100.00
12969;BME280;6549;53.128;8.182;2023-12-07T07:53:22;101709.91;;;1.35;100.00
12969;BME280;6549;53.128;8.182;2023-12-07T07:56:22;101714.72;;;1.39;100.00
12969;BME280;6549;53.128;8.182;2023-12-07T07:59:23;101712.09;;;1.33;100.00
12969;BME280;6549;53.128;8.182;2023-12-07T08:02:23;101706.50;;;1.44;100.00
12969;BME280;6549;53.128;8.182;2023-12-07T08:05:24;101716.22;;;1.45;100.00
12969;BME280;6549;53.128;8.182;2023-12-07T08:08:24;101707.50;;;1.48;100.00
12969;BME280;6549;53.128;8.182;2023-12-07T08:11:26;101716.72;;;1.47;100.00
12969;BME280;6549;53.128;8.182;2023-12-07T08:14:26;101715.13;;;1.46;100.00
12969;BME280;6549;53.128;8.182;2023-12-07T08:17:27;101717.84;;;1.46;100.00
12969;BME280;6549;53.128;8.182;2023-12-07T08:20:28;101711.72;;;1.54;100.00
12969;BME280;6549;53.128;8.182;2023-12-07T08:23:28;101714.44;;;1.54;100.00
12969;BME280;6549;53.128;8.182;2023-12-07T08:26:28;101708.00;;;1.50;100.00
12969;BME280;6549;53.128;8.182;2023-12-07T08:29:29;101715.00;;;1.51;100.00
12969;BME280;6549;53.128;8.182;2023-12-07T08:32:30;101719.03;;;1.53;100.00
12969;BME280;6549;53.128;8.182;2023-12-07T08:35:31;101716.53;;;1.57;100.00
12969;BME280;6549;53.128;8.182;2023-12-07T08:38:31;101727.16;;;1.53;100.00
12969;BME280;6549;53.128;8.182;2023-12-07T08:41:33;101725.75;;;1.56;100.00
12969;BME280;6549;53.128;8.182;2023-12-07T08:44:33;101727.88;;;1.59;100.00
12969;BME280;6549;53.128;8.182;2023-12-07T08:47:34;101725.03;;;1.64;100.00
12969;BME280;6549;53.128;8.182;2023-12-07T08:50:34;101742.44;;;1.63;100.00
12969;BME280;6549;53.128;8.182;2023-12-07T08:53:35;101737.31;;;1.61;100.00
12969;BME280;6549;53.128;8.182;2023-12-07T08:56:35;101731.78;;;1.66;100.00
12969;BME280;6549;53.128;8.182;2023-12-07T08:59:36;101735.31;;;1.67;100.00
12969;BME280;6549;53.128;8.182;2023-12-07T09:02:36;101738.09;;;1.62;100.00
12969;BME280;6549;53.128;8.182;2023-12-07T09:05:36;101727.66;;;1.69;100.00
12969;BME280;6549;53.128;8.182;2023-12-07T09:08:37;101736.91;;;1.68;100.00
12969;BME280;6549;53.128;8.182;2023-12-07T09:11:37;101728.28;;;1.66;100.00
12969;BME280;6549;53.128;8.182;2023-12-07T09:14:38;101727.06;;;1.72;100.00
12969;BME280;6549;53.128;8.182;2023-12-07T09:17:38;101726.25;;;1.71;100.00
12969;BME280;6549;53.128;8.182;2023-12-07T09:20:39;101732.97;;;1.74;100.00
12969;BME280;6549;53.128;8.182;2023-12-07T09:23:45;101729.69;;;1.77;100.00
12969;BME280;6549;53.128;8.182;2023-12-07T09:26:46;101739.59;;;1.81;100.00
12969;BME280;6549;53.128;8.182;2023-12-07T09:29:46;101731.78;;;1.80;100.00
12969;BME280;6549;53.128;8.182;2023-12-07T09:32:47;101745.13;;;1.76;100.00
12969;BME280;6549;53.128;8.182;2023-12-07T09:35:47;101737.50;;;1.78;100.00
12969;BME280;6549;53.128;8.182;2023-12-07T09:38:49;101739.28;;;1.83;100.00
12969;BME280;6549;53.128;8.182;2023-12-07T09:41:49;101733.25;;;1.86;100.00
12969;BME280;6549;53.128;8.182;2023-12-07T09:44:49;101739.91;;;1.94;100.00
12969;BME280;6549;53.128;8.182;2023-12-07T09:47:52;101738.47;;;1.96;100.00
12969;BME280;6549;53.128;8.182;2023-12-07T09:50:55;101739.66;;;2.04;100.00
12969;BME280;6549;53.128;8.182;2023-12-07T09:53:55;101743.91;;;1.96;100.00
12969;BME280;6549;53.128;8.182;2023-12-07T09:56:56;101743.09;;;1.96;100.00
12969;BME280;6549;53.128;8.182;2023-12-07T09:59:57;101752.72;;;2.02;100.00
12969;BME280;6549;53.128;8.182;2023-12-07T10:02:57;101750.50;;;2.04;100.00
12969;BME280;6549;53.128;8.182;2023-12-07T10:05:59;101746.88;;;2.08;100.00
12969;BME280;6549;53.128;8.182;2023-12-07T10:09:03;101744.16;;;2.08;100.00
12969;BME280;6549;53.128;8.182;2023-12-07T10:12:05;101740.16;;;2.06;100.00
12969;BME280;6549;53.128;8.182;2023-12-07T10:15:14;101734.66;;;2.11;100.00
12969;BME280;6549;53.128;8.182;2023-12-07T10:18:23;101733.22;;;2.13;100.00
12969;BME280;6549;53.128;8.182;2023-12-07T10:21:32;101731.94;;;2.11;100.00
12969;BME280;6549;53.128;8.182;2023-12-07T10:24:33;101741.34;;;2.13;100.00
12969;BME280;6549;53.128;8.182;2023-12-07T10:27:33;101732.13;;;2.14;100.00
12969;BME280;6549;53.128;8.182;2023-12-07T10:30:35;101730.63;;;2.08;100.00
12969;BME280;6549;53.128;8.182;2023-12-07T10:33:35;101730.22;;;2.15;100.00
12969;BME280;6549;53.128;8.182;2023-12-07T10:36:36;101727.69;;;2.18;100.00
12969;BME280;6549;53.128;8.182;2023-12-07T10:39:36;101727.47;;;2.29;100.00
12969;BME280;6549;53.128;8.182;2023-12-07T10:42:40;101722.84;;;2.29;100.00
12969;BME280;6549;53.128;8.182;2023-12-07T10:45:41;101723.66;;;2.30;100.00
12969;BME280;6549;53.128;8.182;2023-12-07T10:48:44;101721.84;;;2.25;100.00
12969;BME280;6549;53.128;8.182;2023-12-07T10:51:51;101727.56;;;2.23;100.00
12969;BME280;6549;53.128;8.182;2023-12-07T10:58:01;101724.75;;;2.29;100.00
12969;BME280;6549;53.128;8.182;2023-12-07T11:01:02;101717.91;;;2.31;100.00
12969;BME280;6549;53.128;8.182;2023-12-07T11:04:03;101714.97;;;2.41;100.00
12969;BME280;6549;53.128;8.182;2023-12-07T11:07:09;101707.63;;;2.42;100.00
12969;BME280;6549;53.128;8.182;2023-12-07T11:10:18;101701.59;;;2.45;100.00
12969;BME280;6549;53.128;8.182;2023-12-07T11:13:27;101705.41;;;2.44;100.00
12969;BME280;6549;53.128;8.182;2023-12-07T11:16:39;101703.19;;;2.46;100.00
12969;BME280;6549;53.128;8.182;2023-12-07T11:19:43;101700.78;;;2.44;100.00
12969;BME280;6549;53.128;8.182;2023-12-07T11:22:43;101699.09;;;2.35;100.00
12969;BME280;6549;53.128;8.182;2023-12-07T11:25:45;101690.03;;;2.39;100.00
12969;BME280;6549;53.128;8.182;2023-12-07T11:28:45;101687.03;;;2.41;100.00
12969;BME280;6549;53.128;8.182;2023-12-07T11:31:46;101690.13;;;2.48;100.00
12969;BME280;6549;53.128;8.182;2023-12-07T11:34:46;101676.06;;;2.46;100.00
12969;BME280;6549;53.128;8.182;2023-12-07T11:41:06;101666.03;;;2.46;100.00
12969;BME280;6549;53.128;8.182;2023-12-07T11:44:07;101660.16;;;2.53;100.00
12969;BME280;6549;53.128;8.182;2023-12-07T11:47:08;101669.78;;;2.59;100.00
12969;BME280;6549;53.128;8.182;2023-12-07T11:50:09;101662.75;;;2.58;100.00
12969;BME280;6549;53.128;8.182;2023-12-07T11:53:10;101668.03;;;2.41;100.00
12969;BME280;6549;53.128;8.182;2023-12-07T11:56:10;101663.00;;;2.48;100.00
12969;BME280;6549;53.128;8.182;2023-12-07T11:59:12;101665.56;;;2.53;100.00
12969;BME280;6549;53.128;8.182;2023-12-07T12:02:13;101668.16;;;2.58;100.00
12969;BME280;6549;53.128;8.182;2023-12-07T12:05:14;101666.06;;;2.55;100.00
12969;BME280;6549;53.128;8.182;2023-12-07T12:08:16;101665.97;;;2.60;100.00
12969;BME280;6549;53.128;8.182;2023-12-07T12:11:17;101660.19;;;2.61;100.00
12969;BME280;6549;53.128;8.182;2023-12-07T12:14:18;101650.16;;;2.62;100.00
12969;BME280;6549;53.128;8.182;2023-12-07T12:17:19;101654.00;;;2.61;100.00
12969;BME280;6549;53.128;8.182;2023-12-07T12:20:20;101654.19;;;2.64;100.00
12969;BME280;6549;53.128;8.182;2023-12-07T12:23:21;101656.19;;;2.81;100.00
12969;BME280;6549;53.128;8.182;2023-12-07T12:26:21;101652.47;;;2.77;100.00
12969;BME280;6549;53.128;8.182;2023-12-07T12:29:22;101653.75;;;2.80;100.00
12969;BME280;6549;53.128;8.182;2023-12-07T12:32:23;101665.94;;;2.82;100.00
12969;BME280;6549;53.128;8.182;2023-12-07T12:35:23;101657.78;;;2.82;100.00
12969;BME280;6549;53.128;8.182;2023-12-07T12:38:24;101665.34;;;2.94;100.00
12969;BME280;6549;53.128;8.182;2023-12-07T12:41:25;101658.97;;;2.98;100.00
12969;BME280;6549;53.128;8.182;2023-12-07T12:44:26;101645.69;;;2.97;100.00
12969;BME280;6549;53.128;8.182;2023-12-07T12:47:27;101646.75;;;3.09;100.00
12969;BME280;6549;53.128;8.182;2023-12-07T12:50:37;101645.63;;;3.19;100.00
12969;BME280;6549;53.128;8.182;2023-12-07T12:53:45;101642.28;;;3.13;100.00
12969;BME280;6549;53.128;8.182;2023-12-07T12:56:46;101633.03;;;3.23;100.00
12969;BME280;6549;53.128;8.182;2023-12-07T12:59:47;101633.38;;;3.22;100.00
12969;BME280;6549;53.128;8.182;2023-12-07T13:02:48;101630.19;;;3.28;100.00
12969;BME280;6549;53.128;8.182;2023-12-07T13:05:49;101633.00;;;3.14;100.00
12969;BME280;6549;53.128;8.182;2023-12-07T13:08:49;101626.25;;;3.03;100.00
12969;BME280;6549;53.128;8.182;2023-12-07T13:11:50;101623.34;;;2.91;100.00
12969;BME280;6549;53.128;8.182;2023-12-07T13:14:50;101611.97;;;2.89;100.00
12969;BME280;6549;53.128;8.182;2023-12-07T13:17:50;101604.66;;;2.90;100.00
12969;BME280;6549;53.128;8.182;2023-12-07T13:20:51;101605.91;;;2.92;100.00
12969;BME280;6549;53.128;8.182;2023-12-07T13:23:51;101596.47;;;2.81;100.00
12969;BME280;6549;53.128;8.182;2023-12-07T13:26:51;101585.44;;;2.78;100.00
12969;BME280;6549;53.128;8.182;2023-12-07T13:29:52;101583.53;;;2.78;100.00
12969;BME280;6549;53.128;8.182;2023-12-07T13:32:52;101586.50;;;2.68;100.00
12969;BME280;6549;53.128;8.182;2023-12-07T13:35:52;101588.16;;;2.47;100.00
12969;BME280;6549;53.128;8.182;2023-12-07T13:38:55;101578.41;;;2.46;100.00
12969;BME280;6549;53.128;8.182;2023-12-07T13:41:55;101587.31;;;2.38;100.00
12969;BME280;6549;53.128;8.182;2023-12-07T13:44:57;101590.75;;;2.30;100.00
12969;BME280;6549;53.128;8.182;2023-12-07T13:47:58;101583.69;;;2.20;100.00
12969;BME280;6549;53.128;8.182;2023-12-07T13:50:58;101583.44;;;2.08;100.00
12969;BME280;6549;53.128;8.182;2023-12-07T13:53:59;101580.47;;;1.96;100.00
12969;BME280;6549;53.128;8.182;2023-12-07T13:56:59;101581.66;;;2.03;100.00
12969;BME280;6549;53.128;8.182;2023-12-07T13:59:59;101578.19;;;1.89;100.00
12969;BME280;6549;53.128;8.182;2023-12-07T14:03:00;101579.66;;;1.95;100.00
12969;BME280;6549;53.128;8.182;2023-12-07T14:06:00;101581.16;;;2.01;100.00
12969;BME280;6549;53.128;8.182;2023-12-07T14:09:02;101580.16;;;1.97;100.00
12969;BME280;6549;53.128;8.182;2023-12-07T14:12:03;101588.00;;;1.99;100.00
12969;BME280;6549;53.128;8.182;2023-12-07T14:15:04;101593.47;;;1.85;100.00
12969;BME280;6549;53.128;8.182;2023-12-07T14:18:05;101574.16;;;1.87;100.00
12969;BME280;6549;53.128;8.182;2023-12-07T14:21:05;101579.91;;;1.85;100.00
12969;BME280;6549;53.128;8.182;2023-12-07T14:24:06;101580.72;;;1.86;100.00
12969;BME280;6549;53.128;8.182;2023-12-07T14:27:08;101582.22;;;1.78;100.00
12969;BME280;6549;53.128;8.182;2023-12-07T14:30:09;101586.53;;;1.79;100.00
12969;BME280;6549;53.128;8.182;2023-12-07T14:33:10;101593.91;;;1.65;100.00
12969;BME280;6549;53.128;8.182;2023-12-07T14:36:11;101585.13;;;1.59;100.00
12969;BME280;6549;53.128;8.182;2023-12-07T14:39:13;101608.28;;;1.52;100.00
12969;BME280;6549;53.128;8.182;2023-12-07T14:42:16;101601.47;;;1.54;100.00
12969;BME280;6549;53.128;8.182;2023-12-07T14:45:17;101602.78;;;1.43;100.00
12969;BME280;6549;53.128;8.182;2023-12-07T14:48:20;101613.81;;;1.33;100.00
12969;BME280;6549;53.128;8.182;2023-12-07T14:51:21;101611.81;;;1.39;100.00
12969;BME280;6549;53.128;8.182;2023-12-07T14:54:21;101615.53;;;1.29;100.00
12969;BME280;6549;53.128;8.182;2023-12-07T14:57:21;101608.81;;;1.40;100.00
12969;BME280;6549;53.128;8.182;2023-12-07T15:00:22;101592.47;;;1.31;100.00
12969;BME280;6549;53.128;8.182;2023-12-07T15:03:22;101596.47;;;1.34;100.00
12969;BME280;6549;53.128;8.182;2023-12-07T15:06:22;101589.06;;;1.40;100.00
12969;BME280;6549;53.128;8.182;2023-12-07T15:09:24;101599.06;;;1.39;100.00
12969;BME280;6549;53.128;8.182;2023-12-07T15:12:24;101615.63;;;1.38;100.00
12969;BME280;6549;53.128;8.182;2023-12-07T15:15:25;101611.72;;;1.30;100.00
12969;BME280;6549;53.128;8.182;2023-12-07T15:18:25;101618.56;;;1.27;100.00
12969;BME280;6549;53.128;8.182;2023-12-07T15:21:29;101622.34;;;1.26;100.00
12969;BME280;6549;53.128;8.182;2023-12-07T15:24:30;101625.06;;;1.26;100.00
12969;BME280;6549;53.128;8.182;2023-12-07T15:27:30;101610.81;;;1.21;100.00
12969;BME280;6549;53.128;8.182;2023-12-07T15:30:31;101613.34;;;1.17;100.00
12969;BME280;6549;53.128;8.182;2023-12-07T15:33:34;101613.03;;;1.19;100.00
12969;BME280;6549;53.128;8.182;2023-12-07T15:36:34;101600.91;;;1.16;100.00
12969;BME280;6549;53.128;8.182;2023-12-07T15:39:35;101600.09;;;1.16;100.00
12969;BME280;6549;53.128;8.182;2023-12-07T15:42:39;101590.88;;;1.17;100.00
12969;BME280;6549;53.128;8.182;2023-12-07T15:45:39;101580.03;;;1.03;100.00
12969;BME280;6549;53.128;8.182;2023-12-07T15:48:40;101578.84;;;1.09;100.00
12969;BME280;6549;53.128;8.182;2023-12-07T15:51:40;101580.66;;;1.00;100.00
12969;BME280;6549;53.128;8.182;2023-12-07T15:54:40;101572.03;;;0.98;100.00
12969;BME280;6549;53.128;8.182;2023-12-07T15:57:41;101571.63;;;1.05;100.00
12969;BME280;6549;53.128;8.182;2023-12-07T16:00:41;101557.81;;;1.06;100.00
12969;BME280;6549;53.128;8.182;2023-12-07T16:03:42;101556.00;;;0.88;100.00